createdAt,value
2019-03-09T00:00:36.687Z,100046.09
2019-03-09T00:03:10.027Z,100039.77
2019-03-09T00:05:43.687Z,100039.94
2019-03-09T00:08:17.131Z,100033.94
2019-03-09T00:10:50.472Z,100025.02
2019-03-09T00:13:23.819Z,100018.73
2019-03-09T00:15:57.144Z,100016.58
2019-03-09T00:18:30.766Z,100009.30
2019-03-09T00:21:04.315Z,100010.48
2019-03-09T00:23:39.470Z,99993.17
2019-03-09T00:26:20.355Z,99992.20
2019-03-09T00:28:55.459Z,99982.29
2019-03-09T00:31:36.288Z,99970.15
2019-03-09T00:34:09.614Z,99966.84
2019-03-09T00:36:42.957Z,99952.77
2019-03-09T00:39:18.205Z,99947.59
2019-03-09T00:41:51.572Z,99940.94
2019-03-09T00:44:24.970Z,99931.25
2019-03-09T00:46:58.551Z,99919.78
2019-03-09T00:49:32.104Z,99907.55
2019-03-09T00:52:05.519Z,99901.98
2019-03-09T00:54:38.829Z,99901.26
2019-03-09T00:57:12.256Z,99891.52
2019-03-09T00:59:45.589Z,99882.78
2019-03-09T01:02:19.028Z,99884.73
2019-03-09T01:04:52.443Z,99885.42
2019-03-09T01:07:25.879Z,99880.09
2019-03-09T01:09:59.204Z,99880.23
2019-03-09T01:12:32.545Z,99881.34
2019-03-09T01:15:07.800Z,99872.12
2019-03-09T01:17:41.174Z,99868.23
2019-03-09T01:20:16.135Z,99852.34
2019-03-09T01:22:49.493Z,99853.63
2019-03-09T01:25:22.791Z,99852.58
2019-03-09T01:27:56.202Z,99847.00
2019-03-09T01:30:29.506Z,99831.43
2019-03-09T01:33:02.845Z,99822.86
2019-03-09T01:35:36.171Z,99813.45
2019-03-09T01:38:09.546Z,99799.67
2019-03-09T01:40:42.926Z,99801.23
2019-03-09T01:43:16.304Z,99780.69
2019-03-09T01:45:49.616Z,99779.25
2019-03-09T01:48:22.965Z,99769.34
2019-03-09T01:50:56.346Z,99760.93
2019-03-09T01:53:36.374Z,99754.58
2019-03-09T01:56:04.810Z,99744.44
2019-03-09T01:58:38.169Z,99745.50
2019-03-09T02:01:11.569Z,99735.78
2019-03-09T02:03:44.918Z,99724.81
2019-03-09T02:06:18.236Z,99717.94
2019-03-09T02:08:51.652Z,99706.53
2019-03-09T02:11:25.036Z,99699.41
2019-03-09T02:13:58.444Z,99689.01
2019-03-09T02:16:31.768Z,99682.72
2019-03-09T02:19:05.185Z,99673.09
2019-03-09T02:21:38.489Z,99678.22
2019-03-09T02:24:11.838Z,99661.21
2019-03-09T02:26:45.191Z,99658.19
2019-03-09T02:29:18.618Z,99654.39
2019-03-09T02:31:52.015Z,99649.35
2019-03-09T02:34:25.368Z,99640.23
2019-03-09T02:36:58.706Z,99631.91
2019-03-09T02:39:42.342Z,99625.09
2019-03-09T02:42:15.670Z,99625.53
2019-03-09T02:44:49.470Z,99621.77
2019-03-09T02:47:22.803Z,99614.34
2019-03-09T02:49:56.152Z,99621.74
2019-03-09T02:52:29.484Z,99604.05
2019-03-09T02:55:02.929Z,99601.33
2019-03-09T02:57:36.259Z,99587.25
2019-03-09T03:00:18.722Z,99584.80
2019-03-09T03:02:53.699Z,99568.43
2019-03-09T03:05:27.095Z,99571.23
2019-03-09T03:08:00.442Z,99552.57
2019-03-09T03:10:33.806Z,99549.16
2019-03-09T03:13:07.431Z,99545.88
2019-03-09T03:15:40.788Z,99535.46
2019-03-09T03:18:14.202Z,99526.19
2019-03-09T03:20:47.574Z,99523.93
2019-03-09T03:23:20.911Z,99517.62
2019-03-09T03:25:54.338Z,99518.36
2019-03-09T03:28:27.761Z,99508.61
2019-03-09T03:31:01.213Z,99494.44
2019-03-09T03:33:34.618Z,99492.88
2019-03-09T03:36:08.061Z,99480.23
2019-03-09T03:38:41.402Z,99470.52
2019-03-09T03:41:14.847Z,99456.09
2019-03-09T03:43:48.246Z,99455.93
2019-03-09T03:46:21.693Z,99450.39
2019-03-09T03:48:55.036Z,99445.16
2019-03-09T03:51:28.431Z,99441.89
2019-03-09T03:54:01.830Z,99435.08
2019-03-09T03:56:35.427Z,99434.72
2019-03-09T03:59:08.874Z,99426.61
2019-03-09T04:01:42.353Z,99421.64
2019-03-09T04:04:15.790Z,99433.48
2019-03-09T04:06:49.220Z,99427.81
2019-03-09T04:09:22.741Z,99426.45
2019-03-09T04:11:56.136Z,99423.36
2019-03-09T04:14:29.539Z,99421.27
2019-03-09T04:17:02.874Z,99416.52
2019-03-09T04:19:36.346Z,99415.27
2019-03-09T04:22:09.822Z,99404.25
2019-03-09T04:24:43.222Z,99400.79
2019-03-09T04:27:16.680Z,99404.70
2019-03-09T04:29:50.110Z,99397.53
2019-03-09T04:32:23.508Z,99392.06
2019-03-09T04:34:56.945Z,99392.69
2019-03-09T04:37:30.296Z,99381.57
2019-03-09T04:40:09.504Z,99373.21
2019-03-09T04:42:42.837Z,99363.95
2019-03-09T04:45:16.264Z,99356.13
2019-03-09T04:47:49.668Z,99346.91
2019-03-09T04:50:23.073Z,99330.37
2019-03-09T04:52:57.303Z,99328.86
2019-03-09T04:55:30.725Z,99340.36
2019-03-09T04:58:04.054Z,99345.35
2019-03-09T05:00:37.490Z,99337.33
2019-03-09T05:03:10.887Z,99327.66
2019-03-09T05:05:44.322Z,99322.11
2019-03-09T05:08:20.842Z,99317.88
2019-03-09T05:11:00.431Z,99330.30
2019-03-09T05:13:36.798Z,99322.42
2019-03-09T05:16:10.216Z,99327.63
2019-03-09T05:18:43.541Z,99319.80
2019-03-09T05:21:17.024Z,99317.98
2019-03-09T05:23:50.424Z,99311.40
2019-03-09T05:26:23.806Z,99308.95
2019-03-09T05:28:57.226Z,99305.80
2019-03-09T05:31:30.746Z,99313.29
2019-03-09T05:34:04.261Z,99300.09
2019-03-09T05:36:37.793Z,99302.58
2019-03-09T05:39:11.256Z,99311.50
2019-03-09T05:41:44.629Z,99289.17
2019-03-09T05:44:19.616Z,99300.14
2019-03-09T05:46:52.984Z,99293.27
2019-03-09T05:49:26.332Z,99290.45
2019-03-09T05:52:19.725Z,99299.76
2019-03-09T05:54:53.278Z,99297.20
2019-03-09T05:57:26.745Z,99303.80
2019-03-09T06:00:00.453Z,99309.41
2019-03-09T06:02:33.971Z,99297.74
2019-03-09T06:05:33.994Z,99315.21
2019-03-09T06:08:07.876Z,99332.43
2019-03-09T06:10:41.611Z,99347.02
2019-03-09T06:13:15.099Z,99347.85
2019-03-09T06:15:48.487Z,99349.52
2019-03-09T06:18:21.835Z,99352.99
2019-03-09T06:20:55.277Z,99360.37
2019-03-09T06:23:28.614Z,99363.31
2019-03-09T06:26:02.174Z,99360.53
2019-03-09T06:28:35.655Z,99376.84
2019-03-09T06:31:09.131Z,99399.41
2019-03-09T06:33:42.552Z,99397.35
2019-03-09T06:36:19.126Z,99398.36
2019-03-09T06:38:57.819Z,99389.72
2019-03-09T06:41:53.717Z,99403.33
2019-03-09T06:44:27.111Z,99406.22
2019-03-09T06:47:00.562Z,99414.41
2019-03-09T06:49:33.984Z,99399.16
2019-03-09T06:52:07.484Z,99404.97
2019-03-09T06:54:40.944Z,99394.05
2019-03-09T06:57:14.390Z,99391.87
2019-03-09T06:59:47.862Z,99409.09
2019-03-09T07:02:21.395Z,99407.23
2019-03-09T07:04:54.808Z,99418.38
2019-03-09T07:07:28.402Z,99411.64
2019-03-09T07:10:01.732Z,99421.19
2019-03-09T07:12:35.098Z,99423.20
2019-03-09T07:15:17.573Z,99431.40
2019-03-09T07:17:52.142Z,99443.56
2019-03-09T07:20:25.536Z,99439.25
2019-03-09T07:22:59.099Z,99443.23
2019-03-09T07:25:32.599Z,99449.47
2019-03-09T07:28:08.684Z,99454.97
2019-03-09T07:30:42.090Z,99448.64
2019-03-09T07:33:16.169Z,99470.56
2019-03-09T07:35:49.601Z,99470.14
2019-03-09T07:38:23.042Z,99463.34
2019-03-09T07:40:56.470Z,99484.00
2019-03-09T07:43:29.912Z,99481.11
2019-03-09T07:46:03.326Z,99485.33
2019-03-09T07:48:36.930Z,99489.61
2019-03-09T07:51:10.342Z,99494.25
2019-03-09T07:53:43.772Z,99501.70
2019-03-09T07:56:17.424Z,99504.47
2019-03-09T07:58:50.802Z,99512.17
2019-03-09T08:01:24.342Z,99512.30
2019-03-09T08:03:57.686Z,99513.05
2019-03-09T08:06:31.046Z,99515.17
2019-03-09T08:09:05.876Z,99520.18
2019-03-09T08:11:39.283Z,99516.04
2019-03-09T08:14:12.652Z,99511.58
2019-03-09T08:16:48.028Z,99522.38
2019-03-09T08:19:21.365Z,99515.57
2019-03-09T08:21:54.752Z,99516.44
2019-03-09T08:24:28.077Z,99511.78
2019-03-09T08:27:01.590Z,99521.02
2019-03-09T08:29:35.036Z,99531.42
2019-03-09T08:32:08.510Z,99531.17
2019-03-09T08:34:42.043Z,99533.94
2019-03-09T08:37:15.518Z,99524.86
2019-03-09T08:39:48.922Z,99539.30
2019-03-09T08:42:22.288Z,99537.20
2019-03-09T08:44:55.651Z,99546.34
2019-03-09T08:47:29.045Z,99556.02
2019-03-09T08:50:02.461Z,99549.05
2019-03-09T08:52:36.057Z,99550.19
2019-03-09T08:55:11.058Z,99550.07
2019-03-09T08:57:44.653Z,99555.30
2019-03-09T09:00:20.895Z,99557.83
2019-03-09T09:02:54.398Z,99580.25
2019-03-09T09:05:27.835Z,99569.63
2019-03-09T09:08:03.605Z,99573.83
2019-03-09T09:10:36.325Z,99578.83
2019-03-09T09:13:09.716Z,99564.20
2019-03-09T09:15:43.055Z,99579.88
2019-03-09T09:18:16.425Z,99573.63
2019-03-09T09:20:49.781Z,99583.16
2019-03-09T09:23:23.221Z,99573.13
2019-03-09T09:25:56.554Z,99581.96
2019-03-09T09:28:29.938Z,99578.17
2019-03-09T09:31:03.336Z,99589.53
2019-03-09T09:33:36.902Z,99592.91
2019-03-09T09:36:10.310Z,99577.55
2019-03-09T09:38:43.683Z,99589.59
2019-03-09T09:41:17.037Z,99591.77
2019-03-09T09:43:50.411Z,99589.97
2019-03-09T09:46:23.810Z,99592.53
2019-03-09T09:48:57.220Z,99600.02
2019-03-09T09:51:30.639Z,99618.38
2019-03-09T09:54:04.154Z,99604.78
2019-03-09T09:56:37.559Z,99605.82
2019-03-09T09:59:10.936Z,99619.08
2019-03-09T10:01:44.275Z,99626.99
2019-03-09T10:04:17.675Z,99611.21
2019-03-09T10:06:51.083Z,99614.41
2019-03-09T10:09:24.520Z,99620.15
2019-03-09T10:11:57.857Z,99611.15
2019-03-09T10:14:31.233Z,99606.28
2019-03-09T10:17:04.696Z,99605.17
2019-03-09T10:19:38.126Z,99601.99
2019-03-09T10:22:11.537Z,99598.48
2019-03-09T10:24:44.932Z,99586.25
2019-03-09T10:27:18.285Z,99616.11
2019-03-09T10:29:51.830Z,99621.27
2019-03-09T10:32:25.613Z,99633.08
2019-03-09T10:34:59.166Z,99616.66
2019-03-09T10:37:32.693Z,99622.61
2019-03-09T10:40:09.099Z,99626.31
2019-03-09T10:42:42.447Z,99640.34
2019-03-09T10:45:18.220Z,99623.62
2019-03-09T10:47:51.902Z,99636.63
2019-03-09T10:50:26.107Z,99639.96
2019-03-09T10:52:59.621Z,99645.56
2019-03-09T10:55:34.331Z,99635.14
2019-03-09T10:58:07.661Z,99628.70
2019-03-09T11:00:45.452Z,99653.74
2019-03-09T11:03:18.882Z,99637.01
2019-03-09T11:05:52.406Z,99648.76
2019-03-09T11:08:25.905Z,99653.10
2019-03-09T11:10:59.373Z,99646.06
2019-03-09T11:13:32.711Z,99645.23
2019-03-09T11:16:06.093Z,99645.10
2019-03-09T11:18:39.438Z,99646.89
2019-03-09T11:21:12.885Z,99649.84
2019-03-09T11:23:46.427Z,99645.84
2019-03-09T11:26:19.935Z,99642.96
2019-03-09T11:28:53.263Z,99630.92
2019-03-09T11:31:26.625Z,99637.49
2019-03-09T11:33:59.990Z,99632.01
2019-03-09T11:36:33.420Z,99622.78
2019-03-09T11:39:07.835Z,99625.63
2019-03-09T11:41:41.364Z,99629.80
2019-03-09T11:44:14.701Z,99621.06
2019-03-09T11:46:48.058Z,99613.48
2019-03-09T11:49:21.395Z,99623.80
2019-03-09T11:51:54.900Z,99619.55
2019-03-09T11:54:28.385Z,99604.70
2019-03-09T11:57:01.847Z,99610.48
2019-03-09T11:59:35.313Z,99612.18
2019-03-09T12:02:08.856Z,99594.38
2019-03-09T12:04:46.712Z,99602.78
2019-03-09T12:07:17.392Z,99595.47
2019-03-09T12:09:50.773Z,99592.28
2019-03-09T12:12:24.185Z,99592.38
2019-03-09T12:14:57.631Z,99596.41
2019-03-09T12:17:31.390Z,99589.05
2019-03-09T12:20:07.095Z,99587.67
2019-03-09T12:22:40.685Z,99579.91
2019-03-09T12:25:18.175Z,99584.66
2019-03-09T12:27:51.538Z,99587.30
2019-03-09T12:30:24.953Z,99576.81
2019-03-09T12:32:58.321Z,99577.48
2019-03-09T12:35:31.842Z,99571.88
2019-03-09T12:38:05.167Z,99564.77
2019-03-09T12:40:38.611Z,99566.74
2019-03-09T12:43:12.012Z,99553.81
2019-03-09T12:45:45.411Z,99552.16
2019-03-09T12:48:18.822Z,99557.61
2019-03-09T12:50:52.352Z,99560.02
2019-03-09T12:53:25.781Z,99568.42
2019-03-09T12:55:59.149Z,99548.55
2019-03-09T12:58:32.560Z,99539.58
2019-03-09T13:01:05.930Z,99553.51
2019-03-09T13:03:39.355Z,99558.03
2019-03-09T13:06:12.875Z,99547.52
2019-03-09T13:08:46.220Z,99547.52
2019-03-09T13:11:19.590Z,99538.10
2019-03-09T13:13:52.986Z,99530.71
2019-03-09T13:16:26.345Z,99537.47
2019-03-09T13:18:59.679Z,99543.91
2019-03-09T13:21:33.124Z,99516.69
2019-03-09T13:24:06.555Z,99515.36
2019-03-09T13:26:39.930Z,99511.42
2019-03-09T13:29:13.325Z,99507.55
2019-03-09T13:31:46.702Z,99506.89
2019-03-09T13:34:20.056Z,99493.81
2019-03-09T13:36:53.675Z,99478.61
2019-03-09T13:39:27.081Z,99487.77
2019-03-09T13:42:00.451Z,99479.05
2019-03-09T13:44:33.783Z,99476.38
2019-03-09T13:47:07.559Z,99479.02
2019-03-09T13:49:40.895Z,99480.03
2019-03-09T13:52:14.260Z,99463.88
2019-03-09T13:54:47.589Z,99470.05
2019-03-09T13:57:20.968Z,99469.95
2019-03-09T13:59:54.570Z,99467.12
2019-03-09T14:02:28.085Z,99451.63
2019-03-09T14:05:01.616Z,99455.42
2019-03-09T14:07:35.076Z,99445.77
2019-03-09T14:10:13.185Z,99443.46
2019-03-09T14:12:46.567Z,99438.84
2019-03-09T14:15:20.090Z,99437.11
2019-03-09T14:17:53.843Z,99431.11
2019-03-09T14:20:27.561Z,99431.05
2019-03-09T14:23:01.062Z,99425.42
2019-03-09T14:25:34.457Z,99418.62
2019-03-09T14:28:07.903Z,99409.17
2019-03-09T14:30:41.411Z,99414.33
2019-03-09T14:33:14.784Z,99413.51
2019-03-09T14:35:48.146Z,99410.69
2019-03-09T14:38:21.535Z,99401.70
2019-03-09T14:40:54.870Z,99389.33
2019-03-09T14:43:28.259Z,99385.88
2019-03-09T14:46:01.586Z,99375.48
2019-03-09T14:48:34.957Z,99362.68
2019-03-09T14:51:08.376Z,99374.15
2019-03-09T14:53:41.801Z,99366.13
2019-03-09T14:56:15.141Z,99367.37
2019-03-09T14:58:48.586Z,99368.67
2019-03-09T15:01:21.990Z,99359.69
2019-03-09T15:03:55.435Z,99351.53
2019-03-09T15:06:28.857Z,99350.75
2019-03-09T15:09:02.219Z,99334.23
2019-03-09T15:11:35.623Z,99324.55
2019-03-09T15:14:08.993Z,99323.42
2019-03-09T15:16:42.358Z,99296.17
2019-03-09T15:19:15.705Z,99287.05
2019-03-09T15:21:49.099Z,99275.16
2019-03-09T15:24:22.699Z,99263.98
2019-03-09T15:26:56.051Z,99248.59
2019-03-09T15:29:29.478Z,99245.97
2019-03-09T15:32:02.872Z,99245.83
2019-03-09T15:34:36.270Z,99234.53
2019-03-09T15:37:09.710Z,99235.66
2019-03-09T15:39:43.107Z,99222.16
2019-03-09T15:42:16.532Z,99214.77
2019-03-09T15:44:49.871Z,99217.98
2019-03-09T15:47:23.375Z,99212.77
2019-03-09T15:49:56.851Z,99210.24
2019-03-09T15:52:30.240Z,99205.95
2019-03-09T15:55:04.120Z,99215.00
2019-03-09T15:57:37.552Z,99214.41
2019-03-09T16:00:23.988Z,99238.37
2019-03-09T16:02:57.352Z,99243.30
2019-03-09T16:05:30.788Z,99248.21
2019-03-09T16:08:04.294Z,99245.03
2019-03-09T16:10:37.759Z,99233.29
2019-03-09T16:13:11.137Z,99222.14
2019-03-09T16:15:44.474Z,99217.73
2019-03-09T16:18:17.831Z,99192.30
2019-03-09T16:20:51.200Z,99204.08
2019-03-09T16:23:24.826Z,99198.41
2019-03-09T16:25:58.257Z,99182.09
2019-03-09T16:28:31.586Z,99180.28
2019-03-09T16:31:05.018Z,99178.05
2019-03-09T16:33:38.452Z,99167.73
2019-03-09T16:36:11.814Z,99163.32
2019-03-09T16:38:45.261Z,99169.20
2019-03-09T16:41:18.648Z,99160.60
2019-03-09T16:43:52.119Z,99170.36
2019-03-09T16:46:25.527Z,99170.73
2019-03-09T16:48:58.873Z,99178.88
2019-03-09T16:51:32.310Z,99192.04
2019-03-09T16:54:05.655Z,99180.27
2019-03-09T16:56:39.098Z,99169.09
2019-03-09T16:59:12.443Z,99180.48
2019-03-09T17:01:45.871Z,99186.67
2019-03-09T17:04:19.211Z,99174.36
2019-03-09T17:06:52.570Z,99170.61
2019-03-09T17:09:25.969Z,99177.73
2019-03-09T17:11:59.424Z,99183.13
2019-03-09T17:14:32.771Z,99180.36
2019-03-09T17:17:06.146Z,99176.61
2019-03-09T17:19:39.617Z,99174.69
2019-03-09T17:22:13.050Z,99181.72
2019-03-09T17:24:46.384Z,99178.27
2019-03-09T17:27:19.742Z,99169.78
2019-03-09T17:29:53.150Z,99166.66
2019-03-09T17:32:26.537Z,99173.28
2019-03-09T17:34:59.955Z,99169.58
2019-03-09T17:37:33.327Z,99162.95
2019-03-09T17:40:08.796Z,99168.18
2019-03-09T17:42:42.293Z,99165.25
2019-03-09T17:45:27.208Z,99128.97
2019-03-09T17:48:00.677Z,99191.34
2019-03-09T17:50:34.041Z,99210.49
2019-03-09T17:53:07.524Z,99214.81
2019-03-09T17:55:40.919Z,99237.46
2019-03-09T17:58:14.283Z,99243.91
2019-03-09T18:00:48.561Z,99246.08
2019-03-09T18:03:21.982Z,99256.67
2019-03-09T18:05:55.402Z,99265.75
2019-03-09T18:08:28.790Z,99273.67
2019-03-09T18:11:08.328Z,99289.12
2019-03-09T18:13:41.754Z,99295.94
2019-03-09T18:16:15.081Z,99324.08
2019-03-09T18:18:48.523Z,99338.05
2019-03-09T18:21:21.875Z,99357.88
2019-03-09T18:23:55.230Z,99358.89
2019-03-09T18:26:28.560Z,99363.69
2019-03-09T18:29:01.948Z,99391.84
2019-03-09T18:31:35.277Z,99420.75
2019-03-09T18:34:08.644Z,99445.84
2019-03-09T18:36:42.041Z,99475.45
2019-03-09T18:39:15.469Z,99501.62
2019-03-09T18:41:48.804Z,99503.42
2019-03-09T18:44:22.176Z,99529.78
2019-03-09T18:46:55.578Z,99524.48
2019-03-09T18:49:28.963Z,99550.19
2019-03-09T18:52:02.279Z,99581.17
2019-03-09T18:54:35.631Z,99607.70
2019-03-09T18:57:09.053Z,99600.09
2019-03-09T18:59:42.572Z,99608.19
2019-03-09T19:02:16.126Z,99620.83
2019-03-09T19:04:49.485Z,99622.30
2019-03-09T19:07:22.885Z,99637.94
2019-03-09T19:09:56.497Z,99644.83
2019-03-09T19:12:29.892Z,99677.84
2019-03-09T19:15:03.256Z,99697.93
2019-03-09T19:17:36.582Z,99704.84
2019-03-09T19:20:14.565Z,99706.89
2019-03-09T19:22:48.034Z,99728.75
2019-03-09T19:25:21.464Z,99728.49
2019-03-09T19:27:54.802Z,99745.47
2019-03-09T19:30:28.191Z,99738.94
2019-03-09T19:33:01.527Z,99751.50
2019-03-09T19:35:34.891Z,99771.58
2019-03-09T19:38:08.279Z,99749.42
2019-03-09T19:40:41.725Z,99766.80
2019-03-09T19:43:15.065Z,99770.05
2019-03-09T19:45:48.503Z,99778.00
2019-03-09T19:48:21.844Z,99791.42
2019-03-09T19:50:55.290Z,99786.41
2019-03-09T19:53:28.615Z,99807.89
2019-03-09T19:56:01.984Z,99800.19
2019-03-09T19:58:35.423Z,99797.78
2019-03-09T20:01:08.819Z,99782.77
2019-03-09T20:03:42.243Z,99816.59
2019-03-09T20:06:15.645Z,99815.81
2019-03-09T20:08:49.006Z,99830.31
2019-03-09T20:11:22.392Z,99833.31
2019-03-09T20:13:55.755Z,99842.64
2019-03-09T20:16:29.091Z,99856.61
2019-03-09T20:19:02.546Z,99859.05
2019-03-09T20:21:35.841Z,99865.02
2019-03-09T20:24:09.279Z,99869.39
2019-03-09T20:26:42.676Z,99869.14
2019-03-09T20:29:16.098Z,99871.75
2019-03-09T20:31:49.534Z,99872.31
2019-03-09T20:34:22.899Z,99871.15
2019-03-09T20:36:56.229Z,99878.23
2019-03-09T20:39:29.690Z,99887.19
2019-03-09T20:42:03.135Z,99889.65
2019-03-09T20:44:36.496Z,99879.85
2019-03-09T20:47:09.849Z,99894.09
2019-03-09T20:49:43.218Z,99882.36
2019-03-09T20:52:16.636Z,99892.55
2019-03-09T20:54:50.000Z,99897.77
2019-03-09T20:57:23.348Z,99879.75
2019-03-09T20:59:56.739Z,99890.91
2019-03-09T21:02:30.155Z,99891.81
2019-03-09T21:05:04.195Z,99892.30
2019-03-09T21:07:37.580Z,99899.30
2019-03-09T21:10:16.713Z,99902.67
2019-03-09T21:13:03.926Z,99909.84
2019-03-09T21:15:37.404Z,99912.61
2019-03-09T21:18:10.741Z,99907.69
2019-03-09T21:20:44.151Z,99912.22
2019-03-09T21:23:17.489Z,99917.48
2019-03-09T21:25:50.933Z,99919.83
2019-03-09T21:28:24.258Z,99924.83
2019-03-09T21:30:57.678Z,99937.27
2019-03-09T21:33:31.002Z,99934.16
2019-03-09T21:36:04.364Z,99935.81
2019-03-09T21:38:38.143Z,99940.53
2019-03-09T21:41:13.262Z,99944.84
2019-03-09T21:43:47.072Z,99947.00
2019-03-09T21:46:20.443Z,99945.95
2019-03-09T21:48:53.784Z,99950.88
2019-03-09T21:51:27.156Z,99948.33
2019-03-09T21:54:00.492Z,99948.09
2019-03-09T21:56:33.863Z,99948.33
2019-03-09T21:59:07.614Z,99936.98
2019-03-09T22:01:40.988Z,99944.57
2019-03-09T22:04:14.308Z,99949.22
2019-03-09T22:06:47.804Z,99946.94
2019-03-09T22:09:21.148Z,99953.67
2019-03-09T22:11:54.636Z,99955.08
2019-03-09T22:14:27.985Z,99952.30
2019-03-09T22:17:01.342Z,99959.43
2019-03-09T22:19:34.687Z,99956.66
2019-03-09T22:22:08.128Z,99963.14
2019-03-09T22:24:41.455Z,99967.51
2019-03-09T22:27:14.816Z,99961.40
2019-03-09T22:29:48.179Z,99963.84
2019-03-09T22:32:21.511Z,99968.00
2019-03-09T22:34:54.835Z,99968.05
2019-03-09T22:37:28.197Z,99962.13
2019-03-09T22:40:01.537Z,99969.31
2019-03-09T22:42:34.912Z,99972.27
2019-03-09T22:45:12.938Z,99971.73
2019-03-09T22:47:46.389Z,99969.97
2019-03-09T22:50:24.035Z,99975.97
2019-03-09T22:52:57.439Z,99973.33
2019-03-09T22:55:30.905Z,99988.14
2019-03-09T22:58:04.310Z,99971.17
2019-03-09T23:00:37.875Z,99979.05
2019-03-09T23:03:11.344Z,99977.48
2019-03-09T23:05:44.769Z,99983.16
2019-03-09T23:08:18.170Z,99988.84
2019-03-09T23:10:51.600Z,99988.84
2019-03-09T23:13:24.996Z,99987.02
2019-03-09T23:15:58.666Z,99993.08
2019-03-09T23:18:32.336Z,99995.03
2019-03-09T23:21:06.051Z,99995.91
2019-03-09T23:23:39.674Z,99998.70
2019-03-09T23:26:13.392Z,99980.95
2019-03-09T23:28:47.752Z,99991.86
2019-03-09T23:31:21.493Z,99998.26
2019-03-09T23:33:55.092Z,100001.34
2019-03-09T23:36:28.704Z,100006.08
2019-03-09T23:39:02.157Z,100009.36
2019-03-09T23:41:35.594Z,100014.14
2019-03-09T23:44:09.012Z,100022.16
2019-03-09T23:46:42.465Z,100022.16
2019-03-09T23:49:15.929Z,100023.98
2019-03-09T23:51:49.365Z,100015.17
2019-03-09T23:54:22.813Z,100011.27
2019-03-09T23:56:56.242Z,100005.20
2019-03-09T23:59:32.451Z,99997.67
